createdAt,value
2023-08-12T00:00:45.543Z,16.10
2023-08-12T00:03:33.971Z,16.20
2023-08-12T00:06:06.424Z,16.20
2023-08-12T00:08:36.441Z,16.20
2023-08-12T00:11:04.343Z,16.16
2023-08-12T00:13:35.956Z,16.10
2023-08-12T00:16:04.686Z,16.10
2023-08-12T00:18:37.860Z,16.10
2023-08-12T00:21:11.449Z,16.10
2023-08-12T00:23:44.101Z,16.10
2023-08-12T00:26:13.230Z,16.10
2023-08-12T00:28:43.330Z,16.12
2023-08-12T00:31:11.785Z,16.20
2023-08-12T00:33:40.186Z,16.20
2023-08-12T00:36:08.075Z,16.20
2023-08-12T00:38:37.335Z,16.20
2023-08-12T00:41:06.697Z,16.20
2023-08-12T00:43:34.689Z,16.20
2023-08-12T00:46:03.707Z,16.20
2023-08-12T00:48:31.981Z,16.20
2023-08-12T00:51:00.695Z,16.18
2023-08-12T00:53:29.773Z,16.10
2023-08-12T00:56:04.125Z,16.10
2023-08-12T00:58:34.724Z,16.10
2023-08-12T01:01:03.282Z,16.10
2023-08-12T01:03:33.469Z,16.10
2023-08-12T01:06:03.885Z,16.10
2023-08-12T01:08:33.829Z,16.10
2023-08-12T01:11:30.643Z,16.10
2023-08-12T01:14:11.311Z,16.04
2023-08-12T01:16:48.480Z,16.00
2023-08-12T01:19:36.926Z,16.00
2023-08-12T01:22:11.383Z,16.00
2023-08-12T01:24:45.925Z,16.00
2023-08-12T01:27:16.396Z,16.04
2023-08-12T01:29:51.023Z,16.08
2023-08-12T01:33:05.597Z,16.00
2023-08-12T01:36:04.411Z,16.04
2023-08-12T01:38:35.236Z,16.04
2023-08-12T01:41:04.011Z,16.08
2023-08-12T01:43:34.580Z,16.10
2023-08-12T01:46:04.254Z,16.14
2023-08-12T01:48:33.215Z,16.12
2023-08-12T01:51:02.130Z,16.10
2023-08-12T01:53:30.125Z,16.10
2023-08-12T01:56:01.267Z,16.10
2023-08-12T01:58:31.317Z,16.10
2023-08-12T02:01:00.389Z,16.04
2023-08-12T02:03:30.209Z,16.00
2023-08-12T02:05:58.063Z,16.10
2023-08-12T02:08:27.128Z,16.10
2023-08-12T02:10:57.672Z,16.10
2023-08-12T02:13:25.850Z,16.10
2023-08-12T02:15:54.256Z,16.10
2023-08-12T02:18:22.684Z,16.10
2023-08-12T02:20:53.115Z,16.18
2023-08-12T02:23:20.931Z,16.20
2023-08-12T02:25:49.554Z,16.28
2023-08-12T02:28:17.879Z,16.30
2023-08-12T02:30:46.756Z,16.30
2023-08-12T02:33:15.219Z,16.32
2023-08-12T02:35:43.940Z,16.40
2023-08-12T02:38:12.277Z,16.46
2023-08-12T02:40:41.487Z,16.42
2023-08-12T02:43:11.509Z,16.40
2023-08-12T02:45:40.124Z,16.40
2023-08-12T02:48:08.316Z,16.40
2023-08-12T02:50:36.496Z,16.40
2023-08-12T02:53:06.108Z,16.40
2023-08-12T02:55:35.226Z,16.40
2023-08-12T02:58:06.038Z,16.40
2023-08-12T03:00:34.017Z,16.30
2023-08-12T03:03:02.427Z,16.30
2023-08-12T03:05:32.120Z,16.30
2023-08-12T03:08:02.654Z,16.30
2023-08-12T03:10:31.642Z,16.32
2023-08-12T03:13:00.240Z,16.40
2023-08-12T03:15:28.224Z,16.40
2023-08-12T03:17:58.075Z,16.34
2023-08-12T03:20:26.197Z,16.30
2023-08-12T03:22:54.357Z,16.38
2023-08-12T03:25:24.507Z,16.40
2023-08-12T03:27:55.176Z,16.40
2023-08-12T03:30:23.409Z,16.40
2023-08-12T03:32:54.000Z,16.40
2023-08-12T03:35:22.103Z,16.40
2023-08-12T03:37:54.156Z,16.48
2023-08-12T03:40:21.989Z,16.50
2023-08-12T03:42:49.994Z,16.50
2023-08-12T03:45:19.168Z,16.50
2023-08-12T03:47:47.027Z,16.50
2023-08-12T03:50:16.244Z,16.50
2023-08-12T03:52:46.438Z,16.50
2023-08-12T03:55:14.634Z,16.50
2023-08-12T03:57:42.592Z,16.50
2023-08-12T04:00:13.223Z,16.50
2023-08-12T04:02:41.628Z,16.50
2023-08-12T04:05:11.636Z,16.50
2023-08-12T04:07:44.037Z,16.50
2023-08-12T04:10:13.270Z,16.42
2023-08-12T04:12:45.623Z,16.40
2023-08-12T04:15:14.701Z,16.48
2023-08-12T04:17:47.354Z,16.40
2023-08-12T04:20:16.549Z,16.40
2023-08-12T04:22:45.902Z,16.40
2023-08-12T04:25:16.162Z,16.40
2023-08-12T04:27:45.880Z,16.40
2023-08-12T04:30:15.625Z,16.40
2023-08-12T04:32:43.772Z,16.40
2023-08-12T04:35:13.764Z,16.42
2023-08-12T04:37:42.719Z,16.40
2023-08-12T04:40:12.540Z,16.40
2023-08-12T04:42:40.444Z,16.40
2023-08-12T04:45:09.557Z,16.40
2023-08-12T04:47:38.699Z,16.40
2023-08-12T04:50:07.731Z,16.42
2023-08-12T04:52:35.597Z,16.50
2023-08-12T04:55:05.761Z,16.50
2023-08-12T04:57:33.974Z,16.50
2023-08-12T05:00:03.659Z,16.50
2023-08-12T05:02:31.660Z,16.50
2023-08-12T05:04:59.915Z,16.50
2023-08-12T05:07:27.972Z,16.50
2023-08-12T05:09:56.003Z,16.40
2023-08-12T05:12:23.881Z,16.46
2023-08-12T05:14:53.554Z,16.50
2023-08-12T05:17:23.358Z,16.50
2023-08-12T05:19:51.891Z,16.50
2023-08-12T05:22:21.897Z,16.58
2023-08-12T05:24:50.361Z,16.60
2023-08-12T05:27:18.455Z,16.60
2023-08-12T05:29:47.760Z,16.60
2023-08-12T05:32:16.261Z,16.60
2023-08-12T05:34:44.377Z,16.60
2023-08-12T05:37:12.645Z,16.50
2023-08-12T05:39:41.791Z,16.50
2023-08-12T05:42:12.030Z,16.50
2023-08-12T05:44:43.492Z,16.50
2023-08-12T05:47:12.052Z,16.50
2023-08-12T05:49:41.219Z,16.60
2023-08-12T05:52:11.540Z,16.68
2023-08-12T05:54:40.995Z,16.70
2023-08-12T05:57:09.502Z,16.70
2023-08-12T05:59:39.643Z,16.74
2023-08-12T06:02:07.657Z,16.80
2023-08-12T06:04:36.870Z,16.80
2023-08-12T06:07:04.946Z,16.80
2023-08-12T06:09:33.288Z,16.84
2023-08-12T06:12:01.733Z,16.90
2023-08-12T06:14:29.674Z,17.00
2023-08-12T06:17:00.005Z,17.10
2023-08-12T06:19:30.607Z,17.10
2023-08-12T06:22:03.654Z,17.10
2023-08-12T06:24:33.462Z,17.10
2023-08-12T06:27:01.396Z,17.10
2023-08-12T06:29:30.510Z,17.02
2023-08-12T06:31:59.115Z,17.06
2023-08-12T06:34:28.853Z,17.04
2023-08-12T06:36:57.986Z,17.00
2023-08-12T06:39:27.117Z,17.02
2023-08-12T06:41:57.130Z,17.10
2023-08-12T06:44:27.177Z,17.18
2023-08-12T06:46:55.000Z,17.28
2023-08-12T06:49:22.883Z,17.40
2023-08-12T06:51:53.330Z,17.46
2023-08-12T06:54:24.096Z,17.50
2023-08-12T06:56:52.297Z,17.52
2023-08-12T06:59:21.537Z,17.60
2023-08-12T07:01:49.404Z,17.60
2023-08-12T07:04:17.760Z,17.70
2023-08-12T07:06:46.987Z,17.80
2023-08-12T07:09:15.337Z,17.80
2023-08-12T07:11:43.832Z,17.90
2023-08-12T07:14:11.720Z,17.92
2023-08-12T07:16:39.990Z,17.90
2023-08-12T07:19:08.036Z,17.90
2023-08-12T07:21:36.489Z,18.00
2023-08-12T07:24:08.169Z,18.18
2023-08-12T07:26:36.129Z,18.30
2023-08-12T07:29:04.926Z,18.40
2023-08-12T07:31:35.393Z,18.50
2023-08-12T07:34:03.222Z,18.60
2023-08-12T07:36:31.736Z,18.70
2023-08-12T07:39:00.174Z,18.70
2023-08-12T07:41:29.211Z,18.70
2023-08-12T07:43:59.996Z,18.70
2023-08-12T07:46:31.493Z,18.70
2023-08-12T07:48:59.674Z,18.70
2023-08-12T07:51:29.465Z,18.72
2023-08-12T07:53:57.419Z,18.80
2023-08-12T07:56:25.923Z,18.80
2023-08-12T07:58:54.609Z,18.74
2023-08-12T08:01:22.453Z,18.70
2023-08-12T08:03:54.496Z,18.70
2023-08-12T08:06:25.721Z,18.60
2023-08-12T08:08:54.733Z,18.60
2023-08-12T08:11:25.818Z,18.50
2023-08-12T08:13:53.831Z,18.58
2023-08-12T08:16:26.078Z,18.60
2023-08-12T08:18:54.615Z,18.60
2023-08-12T08:21:22.746Z,18.60
2023-08-12T08:23:51.819Z,18.60
2023-08-12T08:26:21.483Z,18.60
2023-08-12T08:28:52.748Z,18.70
2023-08-12T08:31:22.709Z,18.72
2023-08-12T08:33:52.321Z,18.90
2023-08-12T08:36:21.094Z,19.00
2023-08-12T08:38:52.714Z,19.10
2023-08-12T08:41:23.211Z,19.10
2023-08-12T08:43:58.941Z,19.00
2023-08-12T08:46:27.767Z,19.00
2023-08-12T08:49:01.444Z,18.90
2023-08-12T08:51:33.394Z,18.90
2023-08-12T08:54:05.470Z,18.98
2023-08-12T08:56:34.803Z,19.10
2023-08-12T08:59:08.951Z,19.30
2023-08-12T09:01:40.842Z,19.40
2023-08-12T09:04:09.795Z,19.50
2023-08-12T09:06:43.043Z,19.50
2023-08-12T09:09:18.700Z,19.40
2023-08-12T09:11:47.331Z,19.40
2023-08-12T09:14:17.455Z,19.42
2023-08-12T09:16:47.489Z,19.50
2023-08-12T09:19:16.108Z,19.70
2023-08-12T09:21:55.403Z,19.90
2023-08-12T09:24:30.937Z,20.10
2023-08-12T09:26:59.547Z,20.22
2023-08-12T09:29:33.743Z,20.30
2023-08-12T09:32:19.694Z,20.10
2023-08-12T09:34:57.767Z,20.06
2023-08-12T09:37:26.220Z,20.00
2023-08-12T09:39:55.826Z,19.90
2023-08-12T09:42:25.834Z,19.80
2023-08-12T09:44:59.168Z,19.70
2023-08-12T09:47:28.721Z,19.86
2023-08-12T09:49:57.378Z,20.00
2023-08-12T09:52:28.873Z,20.20
2023-08-12T09:55:00.738Z,20.38
2023-08-12T09:57:33.131Z,20.50
2023-08-12T10:00:04.687Z,20.60
2023-08-12T10:02:32.905Z,20.70
2023-08-12T10:05:05.640Z,20.90
2023-08-12T10:07:37.690Z,21.10
2023-08-12T10:10:08.692Z,21.20
2023-08-12T10:12:37.484Z,21.30
2023-08-12T10:15:07.722Z,21.36
2023-08-12T10:17:43.832Z,21.40
2023-08-12T10:20:23.827Z,21.60
2023-08-12T10:22:53.266Z,21.70
2023-08-12T10:25:25.209Z,21.80
2023-08-12T10:27:54.918Z,22.00
2023-08-12T10:30:22.761Z,22.04
2023-08-12T10:32:51.519Z,22.10
2023-08-12T10:35:19.882Z,22.20
2023-08-12T10:37:54.575Z,22.20
2023-08-12T10:40:24.324Z,22.30
2023-08-12T10:42:52.333Z,22.40
2023-08-12T10:45:20.582Z,22.52
2023-08-12T10:48:01.552Z,22.72
2023-08-12T10:50:33.174Z,22.90
2023-08-12T10:53:27.455Z,23.00
2023-08-12T10:56:04.885Z,23.16
2023-08-12T10:58:47.665Z,23.30
2023-08-12T11:01:22.981Z,23.50
2023-08-12T11:03:51.780Z,23.54
2023-08-12T11:06:22.994Z,23.60
2023-08-12T11:08:54.942Z,23.76
2023-08-12T11:11:27.016Z,23.80
2023-08-12T11:13:58.871Z,23.70
2023-08-12T11:16:39.677Z,23.90
2023-08-12T11:19:10.071Z,23.90
2023-08-12T11:21:38.223Z,23.82
2023-08-12T11:24:06.902Z,23.90
2023-08-12T11:26:36.304Z,24.06
2023-08-12T11:29:13.030Z,24.20
2023-08-12T11:31:42.569Z,24.34
2023-08-12T11:34:11.457Z,24.40
2023-08-12T11:36:40.107Z,24.40
2023-08-12T11:39:09.087Z,24.50
2023-08-12T11:41:37.021Z,24.60
2023-08-12T11:44:05.954Z,24.60
2023-08-12T11:46:35.575Z,24.60
2023-08-12T11:49:03.711Z,24.64
2023-08-12T11:51:31.990Z,24.70
2023-08-12T11:54:01.243Z,24.70
2023-08-12T11:56:29.874Z,24.80
2023-08-12T11:58:58.605Z,24.90
2023-08-12T12:01:27.455Z,25.00
2023-08-12T12:03:56.177Z,25.00
2023-08-12T12:06:38.393Z,25.20
2023-08-12T12:09:13.888Z,25.34
2023-08-12T12:11:46.804Z,25.50
2023-08-12T12:14:15.912Z,25.60
2023-08-12T12:16:49.017Z,25.60
2023-08-12T12:19:23.964Z,25.70
2023-08-12T12:21:54.218Z,25.70
2023-08-12T12:24:23.125Z,25.74
2023-08-12T12:26:51.718Z,25.90
2023-08-12T12:29:20.657Z,25.90
2023-08-12T12:31:49.616Z,25.80
2023-08-12T12:34:19.272Z,25.80
2023-08-12T12:36:47.463Z,25.74
2023-08-12T12:39:16.517Z,25.68
2023-08-12T12:41:48.221Z,25.40
2023-08-12T12:44:17.158Z,25.30
2023-08-12T12:46:47.873Z,25.40
2023-08-12T12:49:16.718Z,25.20
2023-08-12T12:51:44.674Z,24.98
2023-08-12T12:54:15.442Z,24.76
2023-08-12T12:56:44.079Z,24.72
2023-08-12T12:59:16.778Z,24.94
2023-08-12T13:01:47.070Z,25.10
2023-08-12T13:04:17.110Z,25.20
2023-08-12T13:06:45.982Z,25.40
2023-08-12T13:09:15.439Z,25.66
2023-08-12T13:11:45.234Z,25.90
2023-08-12T13:14:13.643Z,25.90
2023-08-12T13:16:46.853Z,25.80
2023-08-12T13:19:17.574Z,25.76
2023-08-12T13:21:46.000Z,25.80
2023-08-12T13:24:16.172Z,26.00
2023-08-12T13:26:44.043Z,26.30
2023-08-12T13:29:12.144Z,26.40
2023-08-12T13:31:43.097Z,26.48
2023-08-12T13:34:12.871Z,26.60
2023-08-12T13:36:41.845Z,26.74
2023-08-12T13:39:10.101Z,26.90
2023-08-12T13:41:39.409Z,26.60
2023-08-12T13:44:10.260Z,26.30
2023-08-12T13:46:40.285Z,26.30
2023-08-12T13:49:08.874Z,26.38
2023-08-12T13:51:39.493Z,26.50
2023-08-12T13:54:10.503Z,26.68
2023-08-12T13:56:38.718Z,26.80
2023-08-12T13:59:06.976Z,26.70
2023-08-12T14:01:37.174Z,26.42
2023-08-12T14:04:07.544Z,26.30
2023-08-12T14:06:35.964Z,26.42
2023-08-12T14:09:04.031Z,26.60
2023-08-12T14:11:32.091Z,26.60
2023-08-12T14:14:00.757Z,26.40
2023-08-12T14:16:30.412Z,26.34
2023-08-12T14:18:58.874Z,26.20
2023-08-12T14:21:26.838Z,26.10
2023-08-12T14:23:58.079Z,26.10
2023-08-12T14:26:32.211Z,26.20
2023-08-12T14:29:02.810Z,26.10
2023-08-12T14:31:33.464Z,26.10
2023-08-12T14:34:10.223Z,26.30
2023-08-12T14:36:38.613Z,26.50
2023-08-12T14:39:06.986Z,26.66
2023-08-12T14:41:35.996Z,26.84
2023-08-12T14:44:06.697Z,27.00
2023-08-12T14:46:34.657Z,27.00
2023-08-12T14:49:02.920Z,26.96
2023-08-12T14:51:31.120Z,26.94
2023-08-12T14:53:59.105Z,26.84
2023-08-12T14:56:27.055Z,26.70
2023-08-12T14:58:56.678Z,26.60
2023-08-12T15:01:31.451Z,26.40
2023-08-12T15:03:59.687Z,26.30
2023-08-12T15:06:27.937Z,26.20
2023-08-12T15:08:56.073Z,26.10
2023-08-12T15:11:26.914Z,26.00
2023-08-12T15:13:57.482Z,26.10
2023-08-12T15:16:25.449Z,26.00
2023-08-12T15:18:54.031Z,26.10
2023-08-12T15:21:22.178Z,26.10
2023-08-12T15:23:56.462Z,26.20
2023-08-12T15:26:25.525Z,26.20
2023-08-12T15:28:53.418Z,26.20
2023-08-12T15:31:21.457Z,26.10
2023-08-12T15:33:50.217Z,25.90
2023-08-12T15:36:19.125Z,25.66
2023-08-12T15:38:49.133Z,25.30
2023-08-12T15:41:18.431Z,25.10
2023-08-12T15:43:46.839Z,24.90
2023-08-12T15:46:14.782Z,24.70
2023-08-12T15:48:44.528Z,24.50
2023-08-12T15:51:13.020Z,24.30
2023-08-12T15:53:42.469Z,24.06
2023-08-12T15:56:10.351Z,23.90
2023-08-12T15:58:38.971Z,23.80
2023-08-12T16:01:07.799Z,23.64
2023-08-12T16:03:38.866Z,23.60
2023-08-12T16:06:09.767Z,23.50
2023-08-12T16:08:37.620Z,23.40
2023-08-12T16:11:06.043Z,23.30
2023-08-12T16:13:34.461Z,23.16
2023-08-12T16:16:04.120Z,23.10
2023-08-12T16:18:35.192Z,23.00
2023-08-12T16:21:03.701Z,22.92
2023-08-12T16:23:35.257Z,22.90
2023-08-12T16:26:03.941Z,22.80
2023-08-12T16:28:34.737Z,22.80
2023-08-12T16:31:04.557Z,22.70
2023-08-12T16:33:34.623Z,22.58
2023-08-12T16:36:03.579Z,22.40
2023-08-12T16:38:31.448Z,22.34
2023-08-12T16:40:59.692Z,22.28
2023-08-12T16:43:27.712Z,22.20
2023-08-12T16:45:56.440Z,22.20
2023-08-12T16:48:28.534Z,22.10
2023-08-12T16:50:57.809Z,22.10
2023-08-12T16:53:26.143Z,22.06
2023-08-12T16:55:56.123Z,22.10
2023-08-12T16:58:24.648Z,22.10
2023-08-12T17:00:52.467Z,22.10
2023-08-12T17:03:21.766Z,22.20
2023-08-12T17:05:50.207Z,22.20
2023-08-12T17:08:18.084Z,22.20
2023-08-12T17:10:49.428Z,22.20
2023-08-12T17:13:17.441Z,22.20
2023-08-12T17:15:47.063Z,22.16
2023-08-12T17:18:16.928Z,22.10
2023-08-12T17:20:45.079Z,22.10
2023-08-12T17:23:13.455Z,22.10
2023-08-12T17:25:41.333Z,22.10
2023-08-12T17:28:09.169Z,22.10
2023-08-12T17:30:37.363Z,22.08
2023-08-12T17:33:05.668Z,22.00
2023-08-12T17:35:34.077Z,22.00
2023-08-12T17:38:02.275Z,22.00
2023-08-12T17:40:30.296Z,22.00
2023-08-12T17:42:58.324Z,21.96
2023-08-12T17:45:28.722Z,21.90
2023-08-12T17:47:59.702Z,21.80
2023-08-12T17:50:28.327Z,21.70
2023-08-12T17:52:57.104Z,21.60
2023-08-12T17:55:25.147Z,21.44
2023-08-12T17:57:53.501Z,21.30
2023-08-12T18:00:24.491Z,21.20
2023-08-12T18:02:52.551Z,21.12
2023-08-12T18:05:21.267Z,21.04
2023-08-12T18:07:49.168Z,21.00
2023-08-12T18:10:18.658Z,20.90
2023-08-12T18:12:46.623Z,20.76
2023-08-12T18:15:15.817Z,20.62
2023-08-12T18:17:44.195Z,20.60
2023-08-12T18:20:13.806Z,20.50
2023-08-12T18:22:44.985Z,20.50
2023-08-12T18:25:13.746Z,20.40
2023-08-12T18:27:41.631Z,20.34
2023-08-12T18:30:10.266Z,20.30
2023-08-12T18:32:40.141Z,20.30
2023-08-12T18:35:08.609Z,20.30
2023-08-12T18:37:36.637Z,20.26
2023-08-12T18:40:05.922Z,20.30
2023-08-12T18:42:33.796Z,20.30
2023-08-12T18:45:02.649Z,20.20
2023-08-12T18:47:34.058Z,20.20
2023-08-12T18:50:04.493Z,20.20
2023-08-12T18:52:32.402Z,20.20
2023-08-12T18:55:00.564Z,20.16
2023-08-12T18:57:29.848Z,20.10
2023-08-12T18:59:58.807Z,20.10
2023-08-12T19:02:26.758Z,20.10
2023-08-12T19:04:57.240Z,20.10
2023-08-12T19:07:25.655Z,20.02
2023-08-12T19:09:53.586Z,20.00
2023-08-12T19:12:26.358Z,20.00
2023-08-12T19:14:54.147Z,19.90
2023-08-12T19:17:23.491Z,19.90
2023-08-12T19:19:52.137Z,19.90
2023-08-12T19:22:20.612Z,19.80
2023-08-12T19:24:52.677Z,19.80
2023-08-12T19:27:20.588Z,19.80
2023-08-12T19:29:50.889Z,19.70
2023-08-12T19:32:20.646Z,19.70
2023-08-12T19:34:50.538Z,19.70
2023-08-12T19:37:21.808Z,19.70
2023-08-12T19:39:49.687Z,19.70
2023-08-12T19:42:17.691Z,19.60
2023-08-12T19:44:46.649Z,19.60
2023-08-12T19:47:20.304Z,19.60
2023-08-12T19:49:48.410Z,19.50
2023-08-12T19:52:17.447Z,19.50
2023-08-12T19:54:45.390Z,19.50
2023-08-12T19:57:16.092Z,19.40
2023-08-12T19:59:46.668Z,19.40
2023-08-12T20:02:28.420Z,19.40
2023-08-12T20:05:04.023Z,19.40
2023-08-12T20:07:32.957Z,19.30
2023-08-12T20:10:01.934Z,19.30
2023-08-12T20:12:30.861Z,19.30
2023-08-12T20:14:59.575Z,19.20
2023-08-12T20:17:27.859Z,19.20
2023-08-12T20:19:57.096Z,19.14
2023-08-12T20:22:25.288Z,19.10
2023-08-12T20:24:53.692Z,19.10
2023-08-12T20:27:24.008Z,19.10
2023-08-12T20:29:52.150Z,19.10
2023-08-12T20:32:20.066Z,19.10
2023-08-12T20:34:49.122Z,19.10
2023-08-12T20:37:19.436Z,19.00
2023-08-12T20:39:47.443Z,19.00
2023-08-12T20:42:15.384Z,19.00
2023-08-12T20:44:43.747Z,19.00
2023-08-12T20:47:12.211Z,19.00
2023-08-12T20:49:45.069Z,19.00
2023-08-12T20:52:14.291Z,19.00
2023-08-12T20:54:42.438Z,19.00
2023-08-12T20:57:15.766Z,19.00
2023-08-12T20:59:47.630Z,18.90
2023-08-12T21:02:17.088Z,18.90
2023-08-12T21:04:46.644Z,18.90
2023-08-12T21:07:15.072Z,18.90
2023-08-12T21:09:44.744Z,18.90
2023-08-12T21:12:13.706Z,18.90
2023-08-12T21:14:43.337Z,18.88
2023-08-12T21:17:11.412Z,18.80
2023-08-12T21:19:39.930Z,18.70
2023-08-12T21:22:09.693Z,18.70
2023-08-12T21:24:37.481Z,18.70
2023-08-12T21:27:08.930Z,18.60
2023-08-12T21:29:36.905Z,18.60
2023-08-12T21:32:06.528Z,18.60
2023-08-12T21:34:39.362Z,18.60
2023-08-12T21:37:07.202Z,18.60
2023-08-12T21:39:35.759Z,18.50
2023-08-12T21:42:04.237Z,18.50
2023-08-12T21:44:32.943Z,18.40
2023-08-12T21:47:00.849Z,18.40
2023-08-12T21:49:30.931Z,18.40
2023-08-12T21:51:58.932Z,18.30
2023-08-12T21:54:26.742Z,18.30
2023-08-12T21:56:55.009Z,18.30
2023-08-12T21:59:23.320Z,18.20
2023-08-12T22:01:51.214Z,18.20
2023-08-12T22:04:20.423Z,18.04
2023-08-12T22:06:48.833Z,18.00
2023-08-12T22:09:19.165Z,17.90
2023-08-12T22:11:47.969Z,17.80
2023-08-12T22:14:17.183Z,17.70
2023-08-12T22:16:53.679Z,17.60
2023-08-12T22:19:25.245Z,17.40
2023-08-12T22:22:02.586Z,17.30
2023-08-12T22:24:42.860Z,17.20
2023-08-12T22:27:13.580Z,17.20
2023-08-12T22:29:42.679Z,17.20
2023-08-12T22:32:10.628Z,17.14
2023-08-12T22:34:39.569Z,17.16
2023-08-12T22:37:07.388Z,17.20
2023-08-12T22:39:35.761Z,17.20
2023-08-12T22:42:04.193Z,17.20
2023-08-12T22:44:32.064Z,17.12
2023-08-12T22:47:00.499Z,17.16
2023-08-12T22:49:30.980Z,17.20
2023-08-12T22:51:59.138Z,17.20
2023-08-12T22:54:27.223Z,17.20
2023-08-12T22:56:55.367Z,17.26
2023-08-12T22:59:23.617Z,17.20
2023-08-12T23:01:51.876Z,17.20
2023-08-12T23:04:21.474Z,17.10
2023-08-12T23:06:50.317Z,16.92
2023-08-12T23:09:20.350Z,16.90
2023-08-12T23:11:49.062Z,16.92
2023-08-12T23:14:16.814Z,17.00
2023-08-12T23:16:46.896Z,17.00
2023-08-12T23:19:14.758Z,17.00
2023-08-12T23:21:47.608Z,17.00
2023-08-12T23:24:19.504Z,17.00
2023-08-12T23:26:50.291Z,17.00
2023-08-12T23:29:20.022Z,17.00
2023-08-12T23:31:49.578Z,17.00
2023-08-12T23:34:17.408Z,17.06
2023-08-12T23:36:45.241Z,17.10
2023-08-12T23:39:15.544Z,17.08
2023-08-12T23:41:48.716Z,17.10
2023-08-12T23:44:17.728Z,17.10
2023-08-12T23:46:48.369Z,17.10
2023-08-12T23:49:17.956Z,17.10
2023-08-12T23:51:47.047Z,17.10
2023-08-12T23:54:16.139Z,17.10
2023-08-12T23:56:44.171Z,17.16
2023-08-12T23:59:12.817Z,17.10
